Flight Track Log - Related Links

Times and Time Zones

All times are in EDT time to prevent confusion due to time zone crossing. See the N662US flight status page for this flight to view local times or setup timezone preferences in your user account.

Time Position Orientation Groundspeed Altitude Reporting Facility
EDT Latitude Longitude Course Direction KTS MPH feet Rate Location/Type
Wed 06:25:00 PM 47.4031 -122.6063 306° West  Level FlightAware Approximate
Wed 06:26:00 PM 47.4969 -122.7235 323° Northwest  Level FlightAware Approximate
Wed 06:26:44 PM 47.6240 -122.5440 317° Northwest 294 338 7,700  Level FlightAware ADS-B
Wed 06:27:00 PM 47.5913 -122.8411 317° Northwest  Level FlightAware Approximate
Wed 06:27:14 PM 47.6280 -122.6010 276° West 299 344 8,800  Level FlightAware ADS-B
Wed 06:27:39 PM 47.6310 -122.6540 275° West 300 345 9,900 1,938 Climbing FlightAware ADS-B
Wed 06:28:19 PM 47.6350 -122.7400 274° West 324 373 10,900 1,341 Climbing FlightAware ADS-B
Wed 06:29:04 PM 47.6410 -122.8450 275° West 361 415 11,800 1,129 Climbing FlightAware ADS-B
Wed 06:29:44 PM 47.6580 -122.9500 284° West 394 453 12,500 1,725 Climbing FlightAware ADS-B
Wed 06:30:24 PM 47.6980 -123.0400 303° West 406 467 14,100 2,442 Climbing FlightAware ADS-B
Wed 06:31:10 PM 47.7460 -123.1540 302° West 413 475 16,000 2,283 Climbing FlightAware ADS-B
Wed 06:31:56 PM 47.7930 -123.2640 302° West 424 488 17,600 2,061 Climbing FlightAware ADS-B
Wed 06:32:49 PM 47.8480 -123.3970 302° West 433 498 19,400 2,000 Climbing FlightAware ADS-B
Wed 06:33:29 PM 47.8900 -123.4990 302° West 439 505 20,700 1,835 Climbing FlightAware ADS-B
Wed 06:34:14 PM 47.9320 -123.6130 299° West 445 512 22,000 1,765 Climbing FlightAware ADS-B
Wed 06:34:54 PM 47.9740 -123.7270 299° West 450 518 23,200 1,725 Climbing FlightAware ADS-B
Wed 06:35:34 PM 48.0140 -123.8360 299° West 455 524 24,300 1,553 Climbing FlightAware ADS-B
Wed 06:36:19 PM 48.0590 -123.9610 298° West 461 531 25,400 1,400 Climbing FlightAware ADS-B
Wed 06:37:04 PM 48.1030 -124.0820 299° West 467 537 26,400 1,341 Climbing FlightAware ADS-B
Wed 06:37:44 PM 48.1470 -124.2010 299° West 472 543 27,300 1,350 Climbing FlightAware ADS-B
Wed 06:38:24 PM 48.1870 -124.3100 299° West 472 543 28,200 1,575 Climbing FlightAware ADS-B
Wed 06:39:04 PM 48.2300 -124.4300 298° West 468 539 29,400 1,624 Climbing FlightAware ADS-B
Wed 06:39:49 PM 48.2750 -124.5550 298° West 463 533 30,500 1,482 Climbing FlightAware ADS-B
Wed 06:40:29 PM 48.3130 -124.6730 296° West 459 528 31,500 1,059 Climbing FlightAware ADS-B
Wed 06:41:14 PM 48.3430 -124.8070 289° West 456 525 32,000 353 Climbing FlightAware ADS-B
Wed 06:41:54 PM 48.3660 -124.9250 286° West 456 525 32,000  Level FlightAware ADS-B
Wed 06:42:39 PM 48.3960 -125.0640 288° West 456 525 32,000  Level FlightAware ADS-B
Wed 06:43:19 PM 48.4220 -125.1840 288° West 457 526 32,000  Level FlightAware ADS-B
Wed 06:44:04 PM 48.4520 -125.3190 289° West 457 526 32,000  Level FlightAware ADS-B
Wed 06:44:39 PM 48.4740 -125.4180 289° West 456 525 32,000  Level FlightAware ADS-B
Wed 06:45:25 PM 48.5050 -125.5630 288° West 454 522 32,000  Level FlightAware ADS-B
Wed 06:46:09 PM 48.5330 -125.6960 288° West 454 522 32,000  Level FlightAware ADS-B
Wed 06:46:47 PM 48.5580 -125.8130 288° West 454 522 32,000  Level FlightAware ADS-B
Wed 06:47:29 PM 48.5840 -125.9340 288° West 455 524 32,000  Level FlightAware ADS-B
Wed 06:48:15 PM 48.6140 -126.0760 288° West 454 522 32,000  Level FlightAware ADS-B
Wed 06:48:49 PM 48.6350 -126.1790 287° West 456 525 32,000  Level FlightAware ADS-B
Wed 06:49:51 PM 48.6740 -126.3670 288° West 454 522 32,000  Level FlightAware ADS-B
Wed 06:50:31 PM 48.6990 -126.4920 287° West 455 524 32,000  Level FlightAware ADS-B
Wed 06:51:15 PM 48.7250 -126.6230 287° West 454 522 32,000  Level FlightAware ADS-B
Wed 06:52:09 PM 48.7570 -126.7770 288° West 455 524 32,000  Level FlightAware ADS-B
Wed 06:52:54 PM 48.7860 -126.9230 287° West 454 522 32,000  Level FlightAware ADS-B
Wed 06:53:29 PM 48.8050 -127.0200 287° West 454 522 32,000  Level FlightAware ADS-B
Wed 06:54:19 PM 48.8360 -127.1760 287° West 454 522 32,000  Level FlightAware ADS-B
Wed 06:55:14 PM 48.8690 -127.3430 287° West 454 522 32,000  Level FlightAware ADS-B
Wed 06:55:56 PM 48.8950 -127.4770 286° West 453 521 32,000  Level FlightAware ADS-B
Wed 06:56:37 PM 48.9160 -127.5890 286° West 453 521 32,000  Level FlightAware ADS-B
Wed 06:57:21 PM 48.9430 -127.7240 287° West 454 522 32,000  Level FlightAware ADS-B
Wed 06:58:19 PM 48.9780 -127.9110 286° West 453 521 32,000  Level FlightAware ADS-B
Wed 06:58:58 PM 48.9990 -128.0120 288° West 453 521 32,000  Level FlightAware ADS-B
Wed 06:59:38 PM 49.0200 -128.1160 287° West 453 521 32,000  Level FlightAware ADS-B
Wed 07:00:18 PM 49.0400 -128.2200 286° West 453 521 32,000  Level FlightAware ADS-B
Wed 07:01:20 PM 49.0730 -128.3810 287° West 453 521 32,000  Level FlightAware ADS-B
Wed 07:01:54 PM 49.0900 -128.4690 286° West 453 521 32,000  Level FlightAware ADS-B
Wed 07:02:45 PM 49.1170 -128.6020 287° West 453 521 32,000  Level FlightAware ADS-B
Wed 07:03:21 PM 49.1360 -128.6960 287° West 453 521 32,000  Level FlightAware ADS-B
Wed 07:04:09 PM 49.1610 -128.8210 287° West 453 521 32,000  Level FlightAware ADS-B
Wed 07:04:45 PM 49.1790 -128.9150 286° West 453 521 32,000  Level FlightAware ADS-B
Wed 07:05:25 PM 49.2000 -129.0190 287° West 453 521 32,000  Level FlightAware ADS-B
Wed 07:06:13 PM 49.2250 -129.1440 287° West 453 521 32,000  Level FlightAware ADS-B
Wed 07:07:01 PM 49.2500 -129.2690 287° West 453 521 32,000  Level FlightAware ADS-B
Wed 07:07:35 PM 49.2680 -129.3580 287° West 453 521 32,000  Level FlightAware ADS-B
Wed 07:08:13 PM 49.2880 -129.4570 287° West 453 521 32,000  Level FlightAware ADS-B
Wed 07:09:04 PM 49.3167 -129.9000 287° West 450 518 32,000  Level Vancouver Center
Wed 07:10:04 PM 49.3500 -130.0833 286° West 450 518 32,000  Level Vancouver Center
Wed 07:11:04 PM 49.4333 -130.2500 308° West 450 518 32,000  Level Vancouver Center
Wed 07:12:04 PM 49.5000 -130.3833 308° West 460 529 32,000  Level Vancouver Center
Wed 07:13:04 PM 49.6000 -130.5500 313° West 460 529 32,000  Level Vancouver Center
Wed 07:14:04 PM 49.6833 -130.7000 311° West 460 529 32,000  Level Vancouver Center
Wed 07:15:04 PM 49.7500 -130.8667 302° West 460 529 32,000  Level Vancouver Center
Wed 07:16:04 PM 49.8500 -131.0000 319° Northwest 460 529 32,000  Level Vancouver Center
Wed 07:17:04 PM 49.9167 -131.1500 305° West 460 529 32,000  Level Vancouver Center
Wed 07:18:04 PM 50.0167 -131.3167 313° West 460 529 32,000  Level Vancouver Center
Wed 07:20:04 PM 50.1833 -131.6333 309° West 460 529 32,000  Level Vancouver Center
Wed 07:21:04 PM 50.2500 -131.7667 308° West 460 529 32,000  Level Vancouver Center
Wed 07:22:04 PM 50.3333 -131.9167 311° West 460 529 32,000  Level Vancouver Center
Wed 07:23:04 PM 50.4167 -132.0833 308° West 460 529 32,000  Level Vancouver Center
Wed 07:24:04 PM 50.4833 -132.2000 312° West 450 518 32,000  Level Vancouver Center
Wed 07:25:04 PM 50.5833 -132.3833 311° West 470 541 32,000  Level Vancouver Center
Wed 07:25:47 PM 50.6167 -132.5000 294° West 350 403 32,000  Level Vancouver Center
Wed 07:26:47 PM 50.7000 -132.6500 311° West 470 541 32,000  Level Vancouver Center
Wed 07:27:47 PM 50.8000 -132.8167 314° West 460 529 32,000  Level Vancouver Center
Wed 07:28:47 PM 50.8667 -132.9667 305° West 460 529 32,000  Level Vancouver Center
Wed 07:29:47 PM 50.9500 -133.1167 311° West 460 529 32,000  Level Vancouver Center
Wed 07:30:47 PM 51.0333 -133.3000 306° West 460 529 32,000  Level Vancouver Center
Wed 07:31:47 PM 51.1167 -133.4500 312° West 460 529 32,000  Level Vancouver Center
Wed 07:32:47 PM 51.1833 -133.6167 303° West 450 518 32,000  Level Vancouver Center
Wed 07:33:47 PM 51.2667 -133.7667 312° West 460 529 32,000  Level Vancouver Center
Wed 07:34:47 PM 51.3500 -133.9167 312° West 440 506 32,000  Level Vancouver Center
Wed 07:35:47 PM 51.4167 -134.0667 306° West 450 518 32,000  Level Vancouver Center
Wed 07:36:47 PM 51.4833 -134.2167 306° West 440 506 32,000  Level Vancouver Center
Wed 07:37:47 PM 51.5667 -134.4000 306° West 450 518 32,000  Level Vancouver Center
Wed 07:38:47 PM 51.6333 -134.5500 306° West 450 518 32,000  Level Vancouver Center
Wed 07:39:47 PM 51.7333 -134.7167 314° West 450 518 32,000  Level Vancouver Center
Wed 07:40:47 PM 51.8000 -134.8667 306° West 450 518 32,000  Level Vancouver Center
Wed 07:41:47 PM 51.8667 -135.0500 301° West 450 518 32,000  Level Vancouver Center
Wed 07:42:47 PM 51.9500 -135.2000 312° West 450 518 32,000  Level Vancouver Center
Wed 07:43:47 PM 52.0167 -135.3667 303° West 450 518 32,000  Level Vancouver Center
Wed 07:44:47 PM 52.0833 -135.5500 301° West 450 518 32,000  Level Vancouver Center
Wed 07:45:47 PM 52.1667 -135.7000 312° West 450 518 32,000  Level Vancouver Center
Wed 07:46:47 PM 52.2333 -135.8500 306° West 450 518 32,000  Level Vancouver Center
Wed 07:47:47 PM 52.3000 -136.0167 303° West 450 518 32,000 600 Level Vancouver Center
Wed 07:48:47 PM 52.3833 -136.2000 307° West 450 518 33,200 1,000 Climbing Vancouver Center
Wed 07:49:47 PM 52.4500 -136.3667 303° West 450 518 34,000 400 Climbing Vancouver Center
Wed 07:50:47 PM 52.5167 -136.5167 306° West 450 518 34,000  Level Vancouver Center
Wed 07:51:47 PM 52.6000 -136.6833 310° West 440 506 34,000  Level Vancouver Center
Wed 07:52:07 PM 52.5833 -136.5333 306° West 448 516 34,000  Level Oakland Oceanic (ODAPS)
Wed 07:52:47 PM 52.6667 -136.8333 306° West 440 506 34,000  Level Vancouver Center
Wed 07:53:47 PM 52.7333 -137.0000 303° West 430 495 34,000  Level Vancouver Center
Wed 07:54:47 PM 52.8000 -137.1667 304° West 440 506 34,000  Level Vancouver Center
Wed 07:55:47 PM 52.8833 -137.3500 307° West 450 518 34,000  Level Vancouver Center
Wed 07:56:47 PM 52.9500 -137.5167 304° West 450 518 34,000  Level Vancouver Center
Wed 07:57:47 PM 53.0167 -137.6667 306° West 440 506 34,000  Level Vancouver Center
Wed 07:58:47 PM 53.1000 -137.8333 310° West 450 518 34,000  Level Vancouver Center
Wed 07:59:47 PM 53.1667 -138.0000 304° West 450 518 34,000  Level Vancouver Center
Wed 08:00:47 PM 53.2333 -138.1667 304° West 450 518 34,000  Level Vancouver Center
Wed 08:01:47 PM 53.3000 -138.3333 304° West 450 518 34,000  Level Vancouver Center
Wed 08:02:47 PM 53.3833 -138.5000 310° West 460 529 34,000  Level Vancouver Center
Wed 08:03:47 PM 53.4333 -138.6667 297° West 460 529 34,000  Level Vancouver Center
Wed 08:04:47 PM 53.5167 -138.8667 305° West 450 518 34,000  Level Vancouver Center
Wed 08:05:47 PM 53.5833 -139.0333 304° West 460 529 34,000  Level Vancouver Center
Wed 08:06:47 PM 53.6500 -139.2333 299° West 450 518 34,000  Level Vancouver Center
Wed 08:07:47 PM 53.7167 -139.4000 304° West 480 552 34,000  Level Vancouver Center
Wed 08:08:47 PM 53.8000 -139.6000 305° West 470 541 34,000  Level Vancouver Center
Wed 08:10:00 PM 53.8976 -139.7944 310° West  Level FlightAware Approximate
Wed 08:13:03 PM 54.0500 -140.1167 302° West 448 516 34,000  Level Oakland Oceanic (ODAPS)
Wed 08:14:10 PM 54.0000 -140.0000 302° West 463 533 34,000  Level Oakland Oceanic (ODAPS)
Wed 08:17:00 PM 54.3696 -141.0352 302° West  Level FlightAware Approximate
Wed 08:18:00 PM 54.4332 -141.2177 301° West  Level FlightAware Approximate
Wed 08:18:03 PM 54.4500 -141.2500 301° West 457 526 34,000  Level Oakland Oceanic (ODAPS)
Wed 08:19:00 PM 54.5738 -141.5982 301° West 448 516 34,000  Level FlightAware Transoceanic
Wed 08:20:00 PM 54.5984 -141.6873 301° West 463 533 34,000  Level FlightAware Transoceanic
Wed 08:21:00 PM 54.6634 -141.8779 300° West 463 533 34,000  Level FlightAware Transoceanic
Wed 08:22:00 PM 54.7281 -142.0690 300° West 463 533 34,000  Level FlightAware Transoceanic
Wed 08:23:00 PM 54.7925 -142.2607 300° West 463 533 34,000  Level FlightAware Transoceanic
Wed 08:24:00 PM 54.8333 -142.3757 300° West 457 526 34,000  Level FlightAware Transoceanic
Wed 08:25:00 PM 54.8962 -142.5654 300° West 457 526 34,000  Level FlightAware Transoceanic
Wed 08:26:00 PM 54.9588 -142.7557 300° West 457 526 34,000  Level FlightAware Transoceanic
Wed 08:27:00 PM 55.0210 -142.9465 300° West 457 526 34,000  Level FlightAware Transoceanic
Wed 08:28:00 PM 55.0830 -143.1380 299° West 457 526 34,000  Level FlightAware Transoceanic
Wed 08:29:00 PM 55.1447 -143.3301 299° West 457 526 34,000  Level FlightAware Transoceanic
Wed 08:30:00 PM 55.2060 -143.5227 299° West 457 526 34,000  Level FlightAware Transoceanic
Wed 08:31:00 PM 55.2671 -143.7159 299° West 457 526 34,000  Level FlightAware Transoceanic
Wed 08:32:00 PM 55.3279 -143.9098 299° West 457 526 34,000  Level FlightAware Transoceanic
Wed 08:33:00 PM 55.3883 -144.1042 299° West 457 526 34,000  Level FlightAware Transoceanic
Wed 08:34:00 PM 55.4484 -144.2992 298° West 457 526 34,000  Level FlightAware Transoceanic
Wed 08:35:00 PM 55.5083 -144.4949 298° West 457 526 34,000  Level FlightAware Transoceanic
Wed 08:36:00 PM 55.5678 -144.6911 298° West 457 526 34,000  Level FlightAware Transoceanic
Wed 08:37:00 PM 55.6270 -144.8879 298° West 457 526 34,000  Level FlightAware Transoceanic
Wed 08:38:00 PM 55.6859 -145.0853 298° West 457 526 34,000  Level FlightAware Transoceanic
Wed 08:39:00 PM 55.7444 -145.2833 298° West 457 526 34,000  Level FlightAware Transoceanic
Wed 08:40:00 PM 55.8027 -145.4819 297° West 457 526 34,000  Level FlightAware Transoceanic
Wed 08:41:00 PM 55.8606 -145.6810 297° West 457 526 34,000  Level FlightAware Transoceanic
Wed 08:42:00 PM 55.9182 -145.8808 297° West 457 526 34,000  Level FlightAware Transoceanic
Wed 08:43:00 PM 55.9755 -146.0812 297° West 457 526 34,000  Level FlightAware Transoceanic
Wed 08:43:17 PM 56.0667 -146.4167 296° West 500 575 34,000  Level Anchorage Center
Wed 08:44:00 PM 56.0325 -146.2821 297° West 457 526 34,000  Level FlightAware Transoceanic
Wed 08:44:17 PM 56.1167 -146.6333 293° West 480 552 34,000  Level Anchorage Center
Wed 08:45:00 PM 56.0891 -146.4837 297° West 457 526 34,000  Level FlightAware Transoceanic
Wed 08:45:17 PM 56.1833 -146.8500 299° West 470 541 34,000  Level Anchorage Center
Wed 08:46:00 PM 56.1454 -146.6858 296° West 457 526 34,000  Level FlightAware Transoceanic
Wed 08:46:18 PM 56.2333 -147.0500 294° West 470 541 34,000  Level Anchorage Center
Wed 08:47:00 PM 56.2013 -146.8885 296° West 457 526 34,000  Level FlightAware Transoceanic
Wed 08:47:18 PM 56.3000 -147.2667 299° West 470 541 34,000  Level Anchorage Center
Wed 08:48:00 PM 56.2570 -147.0919 296° West 457 526 34,000  Level FlightAware Transoceanic
Wed 08:48:18 PM 56.3500 -147.4833 293° West 460 529 34,000  Level Anchorage Center
Wed 08:49:19 PM 56.4167 -147.6833 301° West 460 529 34,000  Level Anchorage Center
Wed 08:50:19 PM 56.4667 -147.9000 293° West 460 529 34,000  Level Anchorage Center
Wed 08:51:19 PM 56.5167 -148.1167 293° West 460 529 34,000  Level Anchorage Center
Wed 08:52:19 PM 56.5833 -148.3167 301° West 460 529 34,000  Level Anchorage Center
Wed 08:53:20 PM 56.6333 -148.5333 293° West 460 529 34,000  Level Anchorage Center
Wed 08:54:20 PM 56.6833 -148.7500 293° West 460 529 34,000  Level Anchorage Center
Wed 08:55:20 PM 56.7333 -148.9667 293° West 460 529 34,000  Level Anchorage Center
Wed 08:56:21 PM 56.8000 -149.1833 299° West 460 529 34,000  Level Anchorage Center
Wed 08:57:21 PM 56.8500 -149.3833 295° West 450 518 34,000  Level Anchorage Center
Wed 08:58:21 PM 56.9000 -149.6000 293° West 460 529 34,000  Level Anchorage Center
Wed 08:59:22 PM 56.9500 -149.8167 293° West 460 529 34,000  Level Anchorage Center
Wed 09:00:22 PM 57.0000 -150.0333 293° West 450 518 34,000  Level Anchorage Center
Wed 09:01:22 PM 57.0833 -150.2333 308° West 450 518 34,000  Level Anchorage Center
Wed 09:02:22 PM 57.1500 -150.4333 302° West 460 529 34,000  Level Anchorage Center
Wed 09:03:23 PM 57.2167 -150.6333 302° West 460 529 34,000  Level Anchorage Center
Wed 09:04:23 PM 57.2833 -150.8333 302° West 460 529 34,000  Level Anchorage Center
Wed 09:05:23 PM 57.3500 -151.0333 302° West 460 529 34,000  Level Anchorage Center
Wed 09:06:24 PM 57.4167 -151.2333 302° West 450 518 34,000  Level Anchorage Center
Wed 09:07:24 PM 57.4833 -151.4333 302° West 450 518 34,000  Level Anchorage Center
Wed 09:08:25 PM 57.5500 -151.6500 300° West 460 529 34,000  Level Anchorage Center
Wed 09:09:25 PM 57.6167 -151.8500 302° West 470 541 34,000  Level Anchorage Center
Wed 09:10:25 PM 57.6833 -152.0500 302° West 450 518 34,000  Level Anchorage Center
Wed 09:11:26 PM 57.7500 -152.2500 302° West 460 529 34,000  Level Anchorage Center
Wed 09:12:26 PM 57.8000 -152.4667 293° West 450 518 34,000  Level Anchorage Center
Wed 09:13:26 PM 57.8500 -152.6833 294° West 440 506 34,000  Level Anchorage Center
Wed 09:14:27 PM 57.9000 -152.9000 294° West 450 518 34,000  Level Anchorage Center
Wed 09:15:27 PM 57.9500 -153.1167 294° West 450 518 34,000  Level Anchorage Center
Wed 09:16:27 PM 58.0000 -153.3167 295° West 440 506 34,000  Level Anchorage Center
Wed 09:17:28 PM 58.0667 -153.5833 295° West 450 518 34,000  Level Anchorage Center
Wed 09:18:28 PM 58.1000 -153.8000 286° West 440 506 34,000  Level Anchorage Center
Wed 09:19:28 PM 58.1500 -154.0167 294° West 450 518 34,000  Level Anchorage Center
Wed 09:20:28 PM 58.2000 -154.2333 294° West 440 506 34,000  Level Anchorage Center
Wed 09:21:29 PM 58.2500 -154.4500 294° West 450 518 34,000  Level Anchorage Center
Wed 09:22:29 PM 58.3000 -154.6667 294° West 450 518 34,000  Level Anchorage Center
Wed 09:23:29 PM 58.3500 -154.9000 292° West 450 518 34,000  Level Anchorage Center
Wed 09:24:30 PM 58.3833 -155.1167 286° West 450 518 34,000  Level Anchorage Center
Wed 09:25:30 PM 58.4333 -155.3500 292° West 450 518 34,000  Level Anchorage Center
Wed 09:26:30 PM 58.4833 -155.5667 294° West 450 518 34,000  Level Anchorage Center
Wed 09:27:31 PM 58.5333 -155.8000 292° West 450 518 34,000  Level Anchorage Center
Wed 09:28:31 PM 58.5833 -156.0333 292° West 450 518 34,000  Level Anchorage Center
Wed 09:29:31 PM 58.6167 -156.2667 285° West 460 529 34,000  Level Anchorage Center
Wed 09:30:32 PM 58.6667 -156.5000 292° West 460 529 34,000  Level Anchorage Center
Wed 09:31:32 PM 58.7167 -156.7333 293° West 470 541 34,000  Level Anchorage Center
Wed 09:32:33 PM 58.7500 -156.9833 285° West 470 541 34,000  Level Anchorage Center
Wed 09:33:33 PM 58.7833 -157.2167 286° West 460 529 34,000  Level Anchorage Center
Wed 09:34:33 PM 58.8167 -157.5000 283° West 470 541 34,000  Level Anchorage Center
Wed 09:35:34 PM 58.8500 -157.7500 285° West 480 552 34,000  Level Anchorage Center
Wed 09:36:34 PM 58.8833 -158.0000 285° West 470 541 34,000  Level Anchorage Center
Wed 09:37:34 PM 58.9000 -158.2500 277° West 470 541 34,000  Level Anchorage Center
Wed 09:38:35 PM 58.9333 -158.5000 285° West 480 552 34,000  Level Anchorage Center
Wed 09:39:35 PM 58.9667 -158.7667 284° West 480 552 34,000  Level Anchorage Center
Wed 09:40:35 PM 59.0000 -159.0167 285° West 470 541 34,000  Level Anchorage Center
Wed 09:41:35 PM 59.0167 -159.2833 277° West 480 552 34,000  Level Anchorage Center
Wed 09:42:36 PM 59.0500 -159.5333 285° West 490 564 34,000  Level Anchorage Center
Wed 09:43:36 PM 59.0833 -159.8000 284° West 490 564 34,000  Level Anchorage Center
Wed 09:44:36 PM 59.1000 -160.0500 278° West 490 564 34,000  Level Anchorage Center
Wed 09:45:37 PM 59.1333 -160.3167 284° West 480 552 34,000  Level Anchorage Center
Wed 09:46:37 PM 59.1667 -160.5833 284° West 490 564 34,000  Level Anchorage Center
Wed 09:47:37 PM 59.1833 -160.8333 278° West 480 552 34,000  Level Anchorage Center
Wed 09:48:38 PM 59.2000 -161.0833 278° West 490 564 34,000  Level Anchorage Center
Wed 09:49:39 PM 59.2333 -161.3667 283° West 490 564 34,000  Level Anchorage Center
Wed 09:50:38 PM 59.2667 -161.6167 285° West 490 564 34,000  Level Anchorage Center
Wed 09:51:39 PM 59.2833 -161.8833 277° West 490 564 34,000  Level Anchorage Center
Wed 09:52:39 PM 59.3000 -162.1500 277° West 480 552 34,000  Level Anchorage Center
Wed 09:53:40 PM 59.3333 -162.4167 284° West 490 564 34,000  Level Anchorage Center
Wed 09:54:40 PM 59.3500 -162.6833 277° West 500 575 34,000  Level Anchorage Center
Wed 09:55:41 PM 59.3667 -162.9500 277° West 490 564 34,000  Level Anchorage Center
Wed 09:56:41 PM 59.3667 -163.2167 270° West 490 564 34,000  Level Anchorage Center
Wed 09:57:41 PM 59.3500 -163.5500 265° West 490 564 34,000  Level Anchorage Center
Wed 09:58:41 PM 59.3333 -163.8167 263° West 490 564 34,000  Level Anchorage Center
Wed 09:59:42 PM 59.3333 -164.0833 270° West 490 564 34,000  Level Anchorage Center
Wed 10:00:42 PM 59.3167 -164.3500 263° West 490 564 34,000  Level Anchorage Center
Wed 10:01:42 PM 59.3000 -164.6167 263° West 500 575 34,000  Level Anchorage Center
Wed 10:02:43 PM 59.2833 -164.8833 263° West 500 575 34,000  Level Anchorage Center
Wed 10:03:43 PM 59.2667 -165.1667 264° West 500 575 34,000  Level Anchorage Center
Wed 10:04:43 PM 59.2500 -165.4333 263° West 500 575 34,000  Level Anchorage Center
Wed 10:05:44 PM 59.2333 -165.7000 263° West 500 575 34,000  Level Anchorage Center
Wed 10:06:44 PM 59.2167 -165.9833 264° West 500 575 34,000  Level Anchorage Center
Wed 10:07:44 PM 59.2000 -166.2500 263° West 500 575 34,000  Level Anchorage Center
Wed 10:08:44 PM 59.1833 -166.5167 263° West 490 564 34,000  Level Anchorage Center
Wed 10:09:54 PM 59.1667 -166.8500 265° West 500 575 34,000  Level Anchorage Center
Wed 10:10:55 PM 59.1500 -167.0667 262° West 490 564 34,000  Level Anchorage Center
Wed 10:11:55 PM 59.1167 -167.3333 256° West 490 564 34,000  Level Anchorage Center
Wed 10:12:55 PM 59.1000 -167.6000 263° West 500 575 34,000  Level Anchorage Center
Wed 10:13:55 PM 59.0833 -167.8667 263° West 500 575 34,000  Level Anchorage Center
Wed 10:14:55 PM 59.0500 -168.1500 257° West 500 575 34,000  Level Anchorage Center
Wed 10:15:55 PM 59.0333 -168.4167 263° West 500 575 34,000  Level Anchorage Center
Wed 10:16:55 PM 59.0167 -168.6833 263° West 500 575 34,000  Level Anchorage Center
Wed 10:17:55 PM 58.9833 -168.9667 257° West 500 575 34,000  Level Anchorage Center
Wed 10:18:55 PM 58.9667 -169.2333 263° West 500 575 34,000  Level Anchorage Center
Wed 10:19:55 PM 58.9500 -169.5000 263° West 510 587 34,000  Level Anchorage Center
Wed 10:20:55 PM 58.9167 -169.7667 256° West 510 587 34,000  Level Anchorage Center
Wed 10:21:55 PM 58.8833 -170.0333 257° West 510 587 34,000  Level Anchorage Center
Wed 10:22:55 PM 58.8667 -170.3000 263° West 500 575 34,000  Level Anchorage Center
Wed 10:23:55 PM 58.8333 -170.5833 257° West 500 575 34,000  Level Anchorage Center
Wed 10:24:55 PM 58.8000 -170.8333 256° West 500 575 34,000  Level Anchorage Center
Wed 10:25:55 PM 58.7833 -171.1167 264° West 510 587 34,000  Level Anchorage Center
Wed 10:26:56 PM 58.7500 -171.3667 256° West 490 564 34,000 250 Level Anchorage Center
Wed 10:27:55 PM 58.7000 -171.6167 249° West 490 564 34,500 504 Climbing Anchorage Center
Wed 10:28:55 PM 58.6500 -171.8667 249° West 500 575 35,000 248 Climbing Anchorage Center
Wed 10:29:56 PM 58.6000 -172.1167 249° West 490 564 35,000  Level Anchorage Center
Wed 10:30:56 PM 58.5333 -172.3667 243° Southwest 500 575 35,000  Level Anchorage Center
Wed 10:31:56 PM 58.4833 -172.6167 249° West 500 575 35,000  Level Anchorage Center
Wed 10:32:56 PM 58.4333 -172.8500 248° West 500 575 35,000  Level Anchorage Center
Wed 10:33:56 PM 58.3833 -173.1000 249° West 500 575 35,000  Level Anchorage Center
Wed 10:34:56 PM 58.3333 -173.3500 249° West 510 587 35,000  Level Anchorage Center
Wed 10:35:56 PM 58.2667 -173.6000 243° Southwest 500 575 35,000  Level Anchorage Center
Wed 10:36:56 PM 58.2167 -173.8333 248° West 500 575 35,000  Level Anchorage Center
Wed 10:37:56 PM 58.1667 -174.0833 249° West 500 575 35,000  Level Anchorage Center
Wed 10:38:56 PM 58.1167 -174.3333 249° West 500 575 35,000  Level Anchorage Center
Wed 10:39:56 PM 58.0500 -174.5667 242° Southwest 490 564 35,000  Level Anchorage Center
Wed 10:41:00 PM 57.9973 -174.8055 247° West  Level FlightAware Approximate
Wed 10:41:57 PM 57.9500 -175.0500 247° West 490 564 35,000  Level Anchorage Center
Wed 10:42:56 PM 57.9000 -175.2833 248° West 480 552 35,000  Level Anchorage Center
Wed 10:43:56 PM 57.8333 -175.5167 242° Southwest 490 564 35,000  Level Anchorage Center
Wed 10:44:57 PM 57.7833 -175.7500 248° West 490 564 35,000  Level Anchorage Center
Wed 10:45:57 PM 57.7333 -175.9833 248° West 480 552 35,000  Level Anchorage Center
Wed 10:48:00 PM 57.6779 -176.2127 246° West  Level FlightAware Approximate
Wed 10:49:20 PM 57.5333 -176.8000 245° Southwest 495 570 35,000  Level Anchorage Center
Wed 10:55:00 PM 57.1824 -178.1577 244° Southwest 495 570 35,000  Level FlightAware Transoceanic
Wed 10:56:00 PM 57.1225 -178.3815 244° Southwest 495 570 35,000  Level FlightAware Transoceanic
Wed 10:57:00 PM 57.0622 -178.6045 243° Southwest 495 570 35,000  Level FlightAware Transoceanic
Wed 10:58:00 PM 57.0015 -178.8268 243° Southwest 495 570 35,000  Level FlightAware Transoceanic
Wed 10:59:00 PM 56.9404 -179.0484 243° Southwest 495 570 35,000  Level FlightAware Transoceanic
Wed 11:00:00 PM 56.8790 -179.2692 243° Southwest 495 570 35,000  Level FlightAware Transoceanic
Wed 11:01:00 PM 56.8171 -179.4893 243° Southwest 495 570 35,000  Level FlightAware Transoceanic
Wed 11:02:00 PM 56.7549 -179.7088 243° Southwest 495 570 35,000  Level FlightAware Transoceanic
Wed 11:03:00 PM 56.6922 -179.9274 242° Southwest 495 570 35,000  Level FlightAware Transoceanic
Wed 11:04:00 PM 56.6292 179.8546 242° Southwest 495 570 35,000  Level FlightAware Transoceanic
Wed 11:05:00 PM 56.5658 179.6374 242° Southwest 495 570 35,000  Level FlightAware Transoceanic
Wed 11:06:00 PM 56.5021 179.4209 242° Southwest 495 570 35,000  Level FlightAware Transoceanic
Wed 11:06:40 PM 56.4833 179.3333 242° Southwest 495 570 35,000  Level Anchorage Center
Wed 11:07:00 PM 56.4379 179.2052 242° Southwest 495 570 35,000  Level FlightAware Transoceanic
Wed 11:08:00 PM 56.3734 178.9902 241° Southwest 495 570 35,000  Level FlightAware Transoceanic
Wed 11:09:00 PM 56.3085 178.7759 241° Southwest 495 570 35,000  Level FlightAware Transoceanic
Wed 11:10:00 PM 56.2433 178.5623 241° Southwest 495 570 35,000  Level FlightAware Transoceanic
Wed 11:11:00 PM 56.1777 178.3495 241° Southwest 495 570 35,000  Level FlightAware Transoceanic
Wed 11:12:00 PM 56.0956 178.0669 241° Southwest 495 570 35,000  Level FlightAware Transoceanic
Wed 11:12:46 PM 56.0667 177.9833 241° Southwest 494 568 35,000  Level Anchorage Center
Wed 11:13:00 PM 56.0297 177.8584 240° Southwest 495 570 35,000  Level FlightAware Transoceanic
Wed 11:14:00 PM 55.9635 177.6505 240° Southwest 495 570 35,000  Level FlightAware Transoceanic
Wed 11:15:00 PM 55.8969 177.4433 240° Southwest 495 570 35,000  Level FlightAware Transoceanic
Wed 11:16:00 PM 55.8300 177.2369 240° Southwest 495 570 35,000  Level FlightAware Transoceanic
Wed 11:16:44 PM 55.7833 177.1167 239° Southwest 500 575 35,000  Level Anchorage Center
Wed 11:17:00 PM 55.7628 177.0312 240° Southwest 495 570 35,000  Level FlightAware Transoceanic
Wed 11:18:00 PM 55.7258 176.9254 240° Southwest 494 568 35,000  Level FlightAware Transoceanic
Wed 11:18:43 PM 55.6333 176.7000 238° Southwest 500 575 35,000  Level Anchorage Center
Wed 11:19:00 PM 55.6566 176.7161 240° Southwest 494 568 35,000  Level FlightAware Transoceanic
Wed 11:19:43 PM 55.5833 176.5167 244° Southwest 490 564 35,000  Level Anchorage Center
Wed 11:20:00 PM 55.5870 176.5075 239° Southwest 494 568 35,000  Level FlightAware Transoceanic
Wed 11:20:44 PM 55.5000 176.2833 238° Southwest 490 564 35,000  Level Anchorage Center
Wed 11:21:00 PM 55.5171 176.2996 239° Southwest 494 568 35,000 508 Level FlightAware Transoceanic
Wed 11:21:43 PM 55.4500 176.1000 244° Southwest 490 564 35,500 577 Climbing Anchorage Center
Wed 11:22:44 PM 55.3667 175.8833 236° Southwest 490 564 36,000 248 Climbing Anchorage Center
Wed 11:23:44 PM 55.3000 175.6500 243° Southwest 490 564 36,000  Level Anchorage Center
Wed 11:24:44 PM 55.2333 175.4833 235° Southwest 500 575 36,000  Level Anchorage Center
Wed 11:25:44 PM 55.1500 175.2500 238° Southwest 490 564 36,000  Level Anchorage Center
Wed 11:26:44 PM 55.0833 175.0667 238° Southwest 490 564 36,000  Level Anchorage Center
Wed 11:27:44 PM 55.0000 174.8500 236° Southwest 500 575 36,000  Level Anchorage Center
Wed 11:28:44 PM 54.9500 174.6833 242° Southwest 490 564 36,000  Level Anchorage Center
Wed 11:29:45 PM 54.8667 174.4667 236° Southwest 490 564 36,000  Level Anchorage Center
Wed 11:30:44 PM 54.7833 174.2500 236° Southwest 490 564 36,000  Level Anchorage Center
Wed 11:31:44 PM 54.7333 174.0667 245° Southwest 490 564 36,000  Level Anchorage Center
Wed 11:32:44 PM 54.6500 173.8667 234° Southwest 480 552 36,000  Level Anchorage Center
Wed 11:33:45 PM 54.5833 173.6833 238° Southwest 480 552 36,000  Level Anchorage Center
Wed 11:34:44 PM 54.5000 173.4833 234° Southwest 470 541 36,000  Level Anchorage Center
Wed 11:35:45 PM 54.4333 173.3000 238° Southwest 480 552 36,000  Level Anchorage Center
Wed 11:36:45 PM 54.3667 173.1000 240° Southwest 490 564 36,000  Level Anchorage Center
Wed 11:37:45 PM 54.2833 172.9000 235° Southwest 470 541 36,000  Level Anchorage Center
Wed 11:38:45 PM 54.2167 172.7333 236° Southwest 480 552 36,000  Level Anchorage Center
Wed 11:39:45 PM 54.1333 172.5167 237° Southwest 500 575 36,000  Level Anchorage Center
Wed 11:40:45 PM 54.0667 172.3500 236° Southwest 480 552 36,000  Level Anchorage Center
Wed 11:41:45 PM 53.9833 172.1667 232° Southwest 480 552 36,000  Level Anchorage Center
Wed 11:42:45 PM 53.9167 172.0000 236° Southwest 480 552 36,000  Level Anchorage Center
Wed 11:43:45 PM 53.8333 171.8000 235° Southwest 480 552 36,000  Level Anchorage Center
Wed 11:44:45 PM 53.7667 171.6333 236° Southwest 490 564 36,000  Level Anchorage Center
Wed 11:45:45 PM 53.6833 171.4500 233° Southwest 480 552 36,000  Level Anchorage Center
Wed 11:46:45 PM 53.6000 171.2500 235° Southwest 470 541 36,000  Level Anchorage Center
Wed 11:47:45 PM 53.5333 171.1000 233° Southwest 450 518 36,000  Level Anchorage Center
Wed 11:48:45 PM 53.4500 170.9167 233° Southwest 460 529 36,000  Level Anchorage Center
Wed 11:49:45 PM 53.3833 170.7667 233° Southwest 460 529 36,000  Level Anchorage Center
Wed 11:50:46 PM 53.3000 170.5833 233° Southwest 470 541 36,000  Level Anchorage Center
Wed 11:51:46 PM 53.2333 170.4333 233° Southwest 460 529 36,000  Level Anchorage Center
Wed 11:52:45 PM 53.1500 170.2500 233° Southwest 450 518 36,000  Level Anchorage Center
Wed 11:53:45 PM 53.0667 170.0667 233° Southwest 460 529 36,000  Level Anchorage Center
Wed 11:54:45 PM 53.0000 169.9167 234° Southwest 450 518 36,000  Level Anchorage Center
Wed 11:55:46 PM 52.9333 169.7167 241° Southwest 470 541 36,000  Level Anchorage Center
Wed 11:56:46 PM 52.8833 169.5667 241° Southwest 450 518 36,000  Level Anchorage Center
Wed 11:57:46 PM 52.8167 169.3667 241° Southwest 460 529 36,000  Level Anchorage Center
Wed 11:58:46 PM 52.7500 169.2000 237° Southwest 460 529 36,000  Level Anchorage Center
Wed 11:59:46 PM 52.7000 169.0167 246° West 440 506 36,000  Level Anchorage Center
Thu 12:00:46 AM 52.6333 168.8500 237° Southwest 470 541 36,000  Level Anchorage Center
Thu 12:01:46 AM 52.5667 168.6667 239° Southwest 460 529 36,000  Level Anchorage Center
Thu 12:02:46 AM 52.5000 168.4667 241° Southwest 450 518 36,000  Level Anchorage Center
Thu 12:03:46 AM 52.4667 168.3167 250° West 430 495 36,000  Level Anchorage Center
Thu 12:04:46 AM 52.3833 168.1333 233° Southwest 400 460 36,000  Level Anchorage Center
Thu 12:05:47 AM 52.3333 167.9833 241° Southwest 440 506 36,000  Level Anchorage Center
Thu 12:06:47 AM 52.2667 167.7833 241° Southwest 440 506 36,000  Level Anchorage Center
Thu 12:07:46 AM 52.2000 167.6333 234° Southwest 450 518 36,000  Level Anchorage Center
Thu 12:08:47 AM 52.1500 167.4833 242° Southwest 440 506 36,000  Level Anchorage Center
Thu 12:10:00 AM 52.0706 167.2668 239° Southwest  Level FlightAware Approximate
Thu 12:17:00 AM 51.6064 166.0363 239° Southwest  Level FlightAware Approximate
Thu 12:18:00 AM 51.5390 165.8625 238° Southwest  Level FlightAware Approximate
Thu 12:19:00 AM 51.4714 165.6893 238° Southwest  Level FlightAware Approximate
Thu 12:19:59 AM 51.4333 165.5500 238° Southwest 449 517 36,000  Level Anchorage Center
Thu 12:20:00 AM 51.4037 165.5164 238° Southwest  Level FlightAware Approximate
Thu 12:21:00 AM 51.3366 165.3432 238° Southwest  Level FlightAware Approximate
Thu 12:22:00 AM 51.2693 165.1704 238° Southwest  Level FlightAware Approximate
Thu 12:23:00 AM 51.2017 164.9982 238° Southwest  Level FlightAware Approximate
Thu 12:24:00 AM 51.1339 164.8265 238° Southwest  Level FlightAware Approximate
Thu 12:25:00 AM 51.0658 164.6552 238° Southwest  Level FlightAware Approximate
Thu 12:26:00 AM 51.0153 164.5139 237° Southwest 449 517 36,000  Level FlightAware Transoceanic
Thu 12:26:38 AM 50.9833 164.4500 237° Southwest 422 486 36,000  Level Anchorage Center
Thu 12:27:00 AM 50.9448 164.3431 237° Southwest 449 517 36,000  Level FlightAware Transoceanic
Thu 12:27:00 AM 50.9500 164.3833 237° Southwest 446 513 36,000  Level Anchorage Center
Thu 12:28:00 AM 50.8740 164.1727 237° Southwest 449 517 36,000  Level FlightAware Transoceanic
Thu 12:29:00 AM 50.8029 164.0029 236° Southwest 449 517 36,000  Level FlightAware Transoceanic
Thu 12:30:00 AM 50.7316 163.8336 236° Southwest 449 517 36,000  Level FlightAware Transoceanic
Thu 12:31:00 AM 50.6601 163.6648 236° Southwest 449 517 36,000  Level FlightAware Transoceanic
Thu 12:32:00 AM 50.5651 163.4518 236° Southwest 422 486 36,000  Level FlightAware Transoceanic
Thu 12:33:00 AM 50.5409 163.4051 236° Southwest 446 513 36,000  Level FlightAware Transoceanic
Thu 12:34:00 AM 50.4719 163.2437 236° Southwest 446 513 36,000  Level FlightAware Transoceanic
Thu 12:35:00 AM 50.4027 163.0828 236° Southwest 446 513 36,000  Level FlightAware Transoceanic
Thu 12:36:00 AM 50.3332 162.9224 236° Southwest 446 513 36,000  Level FlightAware Transoceanic
Thu 12:37:00 AM 50.2636 162.7624 236° Southwest 446 513 36,000  Level FlightAware Transoceanic
Thu 12:38:00 AM 50.1937 162.6029 236° Southwest 446 513 36,000  Level FlightAware Transoceanic
Thu 12:39:00 AM 50.1237 162.4438 235° Southwest 446 513 36,000  Level FlightAware Transoceanic
Thu 12:40:00 AM 50.0534 162.2853 235° Southwest 446 513 36,000  Level FlightAware Transoceanic
Thu 12:41:00 AM 49.9829 162.1272 235° Southwest 446 513 36,000  Level FlightAware Transoceanic
Thu 12:42:00 AM 49.9121 161.9695 235° Southwest 446 513 36,000  Level FlightAware Transoceanic
Thu 12:43:00 AM 49.8412 161.8123 235° Southwest 446 513 36,000  Level FlightAware Transoceanic
Thu 12:44:00 AM 49.7700 161.6556 235° Southwest 446 513 36,000  Level FlightAware Transoceanic
Thu 12:45:00 AM 49.6987 161.4994 235° Southwest 446 513 36,000  Level FlightAware Transoceanic
Thu 12:46:00 AM 49.6271 161.3436 235° Southwest 446 513 36,000  Level FlightAware Transoceanic
Thu 12:47:00 AM 49.5553 161.1882 234° Southwest 446 513 36,000  Level FlightAware Transoceanic
Thu 12:48:00 AM 49.4833 161.0333 234° Southwest 446 513 36,000  Level FlightAware Transoceanic
Thu 12:48:29 AM 49.4833 161.0333 234° Southwest 447 514 36,000  Level Anchorage Center
Thu 12:49:00 AM 49.4034 160.8625 234° Southwest 446 513 36,000  Level FlightAware Transoceanic
Thu 12:50:00 AM 49.3232 160.6922 234° Southwest 446 513 36,000  Level FlightAware Transoceanic
Thu 12:51:00 AM 49.2428 160.5225 234° Southwest 446 513 36,000  Level FlightAware Transoceanic
Thu 12:52:00 AM 49.1621 160.3533 234° Southwest 446 513 36,000  Level FlightAware Transoceanic
Thu 12:53:00 AM 49.0812 160.1847 234° Southwest 446 513 36,000  Level FlightAware Transoceanic
Thu 12:54:00 AM 49.0696 160.1607 234° Southwest 447 514 36,000  Level FlightAware Transoceanic
Thu 12:55:00 AM 49.0000 160.0167 233° Southwest 447 514 36,000  Level FlightAware Transoceanic
Thu 12:56:00 AM 48.9216 159.8568 233° Southwest 447 514 36,000  Level FlightAware Transoceanic
Thu 12:57:00 AM 48.8430 159.6975 233° Southwest 447 514 36,000  Level FlightAware Transoceanic
Thu 12:58:00 AM 48.7643 159.5387 233° Southwest 447 514 36,000  Level FlightAware Transoceanic
Thu 12:59:00 AM 48.6852 159.3803 233° Southwest 447 514 36,000  Level FlightAware Transoceanic
Thu 01:00:00 AM 48.6060 159.2225 233° Southwest 447 514 36,000  Level FlightAware Transoceanic
Thu 01:01:00 AM 48.5265 159.0652 233° Southwest 447 514 36,000  Level FlightAware Transoceanic
Thu 01:02:00 AM 48.4469 158.9083 232° Southwest 447 514 36,000  Level FlightAware Transoceanic
Thu 01:03:00 AM 48.3670 158.7520 232° Southwest 447 514 36,000  Level FlightAware Transoceanic
Thu 01:04:00 AM 48.2869 158.5961 232° Southwest 447 514 36,000  Level FlightAware Transoceanic
Thu 01:05:00 AM 48.2066 158.4407 232° Southwest 447 514 36,000  Level FlightAware Transoceanic
Thu 01:06:00 AM 48.1261 158.2858 232° Southwest 447 514 36,000  Level FlightAware Transoceanic
Thu 01:07:00 AM 48.0454 158.1314 232° Southwest 447 514 36,000  Level FlightAware Transoceanic
Thu 01:08:00 AM 47.9645 157.9775 232° Southwest 447 514 36,000  Level FlightAware Transoceanic
Thu 01:09:00 AM 47.8833 157.8241 232° Southwest 447 514 36,000  Level FlightAware Transoceanic
Thu 01:10:00 AM 47.8020 157.6711 232° Southwest 447 514 36,000  Level FlightAware Transoceanic
Thu 01:11:00 AM 47.7205 157.5186 231° Southwest 447 514 36,000  Level FlightAware Transoceanic
Thu 01:12:00 AM 47.6387 157.3667 231° Southwest 447 514 36,000  Level FlightAware Transoceanic
Thu 01:13:00 AM 47.5568 157.2151 231° Southwest 447 514 36,000  Level FlightAware Transoceanic
Thu 01:14:00 AM 47.4747 157.0641 231° Southwest 447 514 36,000  Level FlightAware Transoceanic
Thu 01:15:00 AM 47.3923 156.9135 231° Southwest 447 514 36,000  Level FlightAware Transoceanic
Thu 01:16:00 AM 47.3098 156.7634 231° Southwest 447 514 36,000  Level FlightAware Transoceanic
Thu 01:17:00 AM 47.2271 156.6137 231° Southwest 447 514 36,000  Level FlightAware Transoceanic
Thu 01:18:00 AM 47.1442 156.4646 231° Southwest 447 514 36,000  Level FlightAware Transoceanic
Thu 01:19:00 AM 47.0611 156.3159 231° Southwest 447 514 36,000  Level FlightAware Transoceanic
Thu 01:20:00 AM 46.9777 156.1676 230° Southwest 447 514 36,000  Level FlightAware Transoceanic
Thu 01:21:00 AM 46.8942 156.0198 230° Southwest 447 514 36,000  Level FlightAware Transoceanic
Thu 01:22:00 AM 46.8106 155.8725 230° Southwest 447 514 36,000  Level FlightAware Transoceanic
Thu 01:23:00 AM 46.7267 155.7256 230° Southwest 447 514 36,000  Level FlightAware Transoceanic
Thu 01:24:00 AM 46.6426 155.5792 230° Southwest 447 514 36,000  Level FlightAware Transoceanic
Thu 01:25:00 AM 46.5584 155.4333 230° Southwest 447 514 36,000  Level FlightAware Transoceanic
Thu 01:26:00 AM 46.4740 155.2878 230° Southwest 447 514 36,000  Level FlightAware Transoceanic
Thu 01:27:00 AM 46.3894 155.1427 230° Southwest 447 514 36,000  Level FlightAware Transoceanic
Thu 01:28:00 AM 46.3046 154.9981 230° Southwest 447 514 36,000  Level FlightAware Transoceanic
Thu 01:29:00 AM 46.2196 154.8540 229° Southwest 447 514 36,000  Level FlightAware Transoceanic
Thu 01:30:00 AM 46.1344 154.7103 229° Southwest 447 514 36,000  Level FlightAware Transoceanic
Thu 01:31:00 AM 46.0491 154.5670 229° Southwest 447 514 36,000  Level FlightAware Transoceanic
Thu 01:32:00 AM 45.9636 154.4242 229° Southwest 447 514 36,000  Level FlightAware Transoceanic
Thu 01:33:00 AM 45.8779 154.2818 229° Southwest 447 514 36,000  Level FlightAware Transoceanic
Thu 01:34:00 AM 45.7920 154.1399 229° Southwest 447 514 36,000  Level FlightAware Transoceanic
Thu 01:35:00 AM 45.7060 153.9984 229° Southwest 447 514 36,000  Level FlightAware Transoceanic
Thu 01:36:00 AM 45.6197 153.8573 229° Southwest 447 514 36,000 69 Level FlightAware Transoceanic
Thu 01:37:00 AM 45.5303 153.7352 224° Southwest  Level FlightAware Approximate
Thu 01:38:00 AM 45.4405 153.6132 224° Southwest  Level FlightAware Approximate
Thu 01:39:00 AM 45.4510 153.6114 228° Southwest  Level FlightAware Approximate
Thu 01:40:00 AM 45.3685 153.4796 228° Southwest  Level FlightAware Approximate
Thu 01:41:00 AM 45.2858 153.3482 228° Southwest  Level FlightAware Approximate
Thu 01:42:00 AM 45.2031 153.2174 228° Southwest  Level FlightAware Approximate
Thu 01:43:00 AM 45.1203 153.0870 228° Southwest  Level FlightAware Approximate
Thu 01:44:00 AM 45.0373 152.9570 228° Southwest  Level FlightAware Approximate
Thu 01:45:00 AM 44.9542 152.8273 228° Southwest  Level FlightAware Approximate
Thu 01:46:00 AM 44.8709 152.6980 228° Southwest  Level FlightAware Approximate
Thu 01:47:00 AM 44.7875 152.5691 228° Southwest  Level FlightAware Approximate
Thu 01:48:00 AM 44.7039 152.4406 228° Southwest  Level FlightAware Approximate
Thu 01:49:00 AM 44.6202 152.3125 227° Southwest  Level FlightAware Approximate
Thu 01:50:00 AM 44.5363 152.1847 227° Southwest  Level FlightAware Approximate
Thu 01:51:00 AM 44.4523 152.0572 227° Southwest  Level FlightAware Approximate
Thu 01:52:00 AM 44.3682 151.9302 227° Southwest  Level FlightAware Approximate
Thu 01:53:00 AM 44.2839 151.8035 227° Southwest  Level FlightAware Approximate
Thu 01:54:00 AM 44.1995 151.6772 227° Southwest  Level FlightAware Approximate
Thu 01:55:00 AM 44.1149 151.5512 227° Southwest  Level FlightAware Approximate
Thu 01:56:00 AM 44.0302 151.4256 227° Southwest  Level FlightAware Approximate
Thu 01:57:00 AM 43.9454 151.3003 227° Southwest  Level FlightAware Approximate
Thu 01:58:00 AM 43.8604 151.1754 227° Southwest  Level FlightAware Approximate
Thu 01:59:00 AM 43.7753 151.0509 227° Southwest  Level FlightAware Approximate
Thu 02:00:00 AM 43.6901 150.9267 227° Southwest  Level FlightAware Approximate
Thu 02:01:00 AM 43.6047 150.8029 226° Southwest  Level FlightAware Approximate
Thu 02:02:00 AM 43.5192 150.6794 226° Southwest  Level FlightAware Approximate
Thu 02:03:00 AM 43.4336 150.5563 226° Southwest  Level FlightAware Approximate
Thu 02:03:47 AM 43.1370 150.1230 226° Southwest 465 535 38,000  Level FlightAware ADS-B
Thu 02:04:00 AM 43.3478 150.4335 226° Southwest  Level FlightAware Approximate
Thu 02:04:28 AM 43.0820 150.0450 226° Southwest 464 534 38,000  Level FlightAware ADS-B
Thu 02:05:23 AM 43.0120 149.9460 226° Southwest 464 534 38,000  Level FlightAware ADS-B
Thu 02:06:07 AM 42.9260 149.8270 225° Southwest 457 526 38,000  Level FlightAware ADS-B
Thu 02:06:52 AM 42.8590 149.7340 226° Southwest 456 525 38,000  Level FlightAware ADS-B
Thu 02:07:42 AM 42.7880 149.6340 226° Southwest 456 525 38,000  Level FlightAware ADS-B
Thu 02:08:32 AM 42.7140 149.5330 225° Southwest 456 525 38,000  Level FlightAware ADS-B
Thu 02:09:12 AM 42.6530 149.4500 225° Southwest 457 526 38,000  Level FlightAware ADS-B
Thu 02:09:54 AM 42.6010 149.3780 226° Southwest 457 526 38,000  Level FlightAware ADS-B
Thu 02:10:54 AM 42.5100 149.2530 225° Southwest 456 525 38,000  Level FlightAware ADS-B
Thu 02:11:39 AM 42.4350 149.1500 225° Southwest 444 511 38,000  Level FlightAware ADS-B
Thu 02:12:34 AM 42.3570 149.0440 225° Southwest 444 511 38,000  Level FlightAware ADS-B
Thu 02:13:14 AM 42.2960 148.9620 225° Southwest 442 509 38,000  Level FlightAware ADS-B
Thu 02:13:59 AM 42.2310 148.8740 225° Southwest 441 507 38,000  Level FlightAware ADS-B
Thu 02:14:39 AM 42.1720 148.7930 226° Southwest 437 503 38,000  Level FlightAware ADS-B
Thu 02:15:19 AM 42.1140 148.7160 225° Southwest 434 499 38,000  Level FlightAware ADS-B
Thu 02:15:59 AM 42.0550 148.6380 224° Southwest 432 497 38,000  Level FlightAware ADS-B
Thu 02:16:44 AM 41.9920 148.5520 225° Southwest 434 499 38,000  Level FlightAware ADS-B
Thu 02:17:29 AM 41.9280 148.4680 224° Southwest 429 494 38,000  Level FlightAware ADS-B
Thu 02:18:09 AM 41.8710 148.3930 224° Southwest 420 483 38,000  Level FlightAware ADS-B
Thu 02:18:49 AM 41.8150 148.3190 225° Southwest 419 482 38,000  Level FlightAware ADS-B
Thu 02:19:29 AM 41.7610 148.2470 225° Southwest 417 480 38,000  Level FlightAware ADS-B
Thu 02:20:15 AM 41.6960 148.1620 224° Southwest 422 486 38,000  Level FlightAware ADS-B
Thu 02:20:54 AM 41.6390 148.0880 224° Southwest 421 484 38,000  Level FlightAware ADS-B
Thu 02:21:39 AM 41.5770 148.0090 224° Southwest 420 483 38,000  Level FlightAware ADS-B
Thu 02:22:24 AM 41.5180 147.9320 224° Southwest 411 473 38,000  Level FlightAware ADS-B
Thu 02:23:04 AM 41.4600 147.8590 223° Southwest 410 472 38,000  Level FlightAware ADS-B
Thu 02:23:44 AM 41.4060 147.7890 224° Southwest 410 472 38,000  Level FlightAware ADS-B
Thu 02:24:29 AM 41.3420 147.7080 224° Southwest 412 474 38,000  Level FlightAware ADS-B
Thu 02:25:09 AM 41.2870 147.6390 223° Southwest 411 473 38,000  Level FlightAware ADS-B
Thu 02:25:49 AM 41.2310 147.5660 224° Southwest 410 472 38,000  Level FlightAware ADS-B
Thu 02:26:29 AM 41.1740 147.4960 223° Southwest 409 471 38,000  Level FlightAware ADS-B
Thu 02:27:14 AM 41.1120 147.4170 224° Southwest 407 468 38,000  Level FlightAware ADS-B
Thu 02:27:54 AM 41.0550 147.3460 223° Southwest 406 467 38,000  Level FlightAware ADS-B
Thu 02:28:39 AM 40.9950 147.2690 224° Southwest 406 467 38,000  Level FlightAware ADS-B
Thu 02:29:19 AM 40.9400 147.2020 223° Southwest 406 467 38,000  Level FlightAware ADS-B
Thu 02:29:59 AM 40.8820 147.1290 224° Southwest 405 466 38,000  Level FlightAware ADS-B
Thu 02:30:44 AM 40.8200 147.0520 223° Southwest 405 466 38,000  Level FlightAware ADS-B
Thu 02:31:29 AM 40.7620 146.9800 223° Southwest 403 464 38,000  Level FlightAware ADS-B
Thu 02:32:27 AM 40.6900 146.8890 224° Southwest 403 464 38,000  Level FlightAware ADS-B
Thu 02:33:05 AM 40.6540 146.8450 223° Southwest 403 464 38,000  Level FlightAware ADS-B
Thu 02:33:41 AM 40.5810 146.7550 223° Southwest 396 456 38,000  Level FlightAware ADS-B
Thu 02:34:30 AM 40.5130 146.6720 223° Southwest 396 456 38,000  Level FlightAware ADS-B
Thu 02:35:25 AM 40.4420 146.5850 223° Southwest 381 438 38,000  Level FlightAware ADS-B
Thu 02:36:05 AM 40.3880 146.5190 223° Southwest 379 436 38,000 -444 Level FlightAware ADS-B
Thu 02:36:46 AM 40.3390 146.4590 223° Southwest 379 436 37,400 -1,125 Descending FlightAware ADS-B
Thu 02:37:25 AM 40.2850 146.3940 223° Southwest 378 435 36,500 -614 Descending FlightAware ADS-B
Thu 02:38:14 AM 40.2310 146.3290 223° Southwest 378 435 36,500 -1,000 Level FlightAware ADS-B
Thu 02:38:55 AM 40.1760 146.2640 222° Southwest 392 451 35,000 -1,139 Descending FlightAware ADS-B
Thu 02:39:33 AM 40.1330 146.2120 223° Southwest 392 451 35,000  Level FlightAware ADS-B
Thu 02:40:26 AM 40.0720 146.1410 222° Southwest 392 451 35,000  Level FlightAware ADS-B
Thu 02:41:14 AM 40.0170 146.0760 222° Southwest 392 451 35,000  Level FlightAware ADS-B
Thu 02:41:51 AM 39.9750 146.0260 222° Southwest 392 451 35,000  Level FlightAware ADS-B
Thu 02:42:41 AM 39.9180 145.9590 222° Southwest 392 451 35,000  Level FlightAware ADS-B
Thu 02:43:17 AM 39.8760 145.9110 221° Southwest 392 451 35,000  Level FlightAware ADS-B
Thu 02:44:05 AM 39.8210 145.8460 222° Southwest 392 451 35,000  Level FlightAware ADS-B
Thu 02:44:43 AM 39.7780 145.7950 222° Southwest 392 451 35,000  Level FlightAware ADS-B
Thu 02:45:21 AM 39.7340 145.7440 222° Southwest 392 451 35,000  Level FlightAware ADS-B
Thu 02:46:09 AM 39.6790 145.6800 222° Southwest 392 451 35,000  Level FlightAware ADS-B
Thu 02:46:47 AM 39.6360 145.6290 222° Southwest 392 451 35,000  Level FlightAware ADS-B
Thu 02:47:33 AM 39.5830 145.5670 222° Southwest 392 451 35,000  Level FlightAware ADS-B
Thu 02:48:09 AM 39.5420 145.5190 222° Southwest 392 451 35,000 -54 Level FlightAware ADS-B
Thu 02:50:00 AM 39.3728 145.3185 223° Southwest  Level FlightAware Approximate
Thu 02:51:00 AM 39.2811 145.2105 222° Southwest  Level FlightAware Approximate
Thu 02:52:00 AM 39.1894 145.1028 222° Southwest  Level FlightAware Approximate
Thu 02:53:00 AM 39.0976 144.9954 222° Southwest  Level FlightAware Approximate
Thu 02:54:00 AM 39.0057 144.8883 222° Southwest  Level FlightAware Approximate
Thu 02:55:00 AM 38.9137 144.7814 222° Southwest  Level FlightAware Approximate
Thu 02:56:00 AM 38.8215 144.6749 222° Southwest  Level FlightAware Approximate
Thu 02:57:00 AM 38.7289 144.5692 222° Southwest  Level FlightAware Approximate
Thu 02:58:00 AM 38.6360 144.4639 222° Southwest  Level FlightAware Approximate
Thu 02:59:00 AM 38.5430 144.3590 221° Southwest  Level FlightAware Approximate
Thu 03:00:00 AM 38.4500 144.2543 221° Southwest  Level FlightAware Approximate
Thu 03:01:00 AM 38.3568 144.1499 221° Southwest  Level FlightAware Approximate
Thu 03:02:00 AM 38.2636 144.0457 221° Southwest  Level FlightAware Approximate
Thu 03:03:00 AM 38.1703 143.9419 221° Southwest  Level FlightAware Approximate
Thu 03:04:00 AM 38.0769 143.8383 221° Southwest  Level FlightAware Approximate
Thu 03:05:00 AM 37.9833 143.7349 221° Southwest  Level FlightAware Approximate
Thu 03:05:58 AM 37.8150 143.5380 221° Southwest 418 481 34,000  Level FlightAware ADS-B
Thu 03:06:00 AM 37.8898 143.6318 221° Southwest  Level FlightAware Approximate
Thu 03:06:41 AM 37.7590 143.4780 220° Southwest 418 481 34,000  Level FlightAware ADS-B
Thu 03:07:17 AM 37.7150 143.4290 221° Southwest 418 481 34,000  Level FlightAware ADS-B
Thu 03:08:33 AM 37.5830 143.2810 222° Southwest 430 495 34,000  Level FlightAware ADS-B
Thu 03:09:08 AM 37.5270 143.2440 208° Southwest 437 503 34,000  Level FlightAware ADS-B
Thu 03:09:53 AM 37.4430 143.1880 208° Southwest 434 499 34,000  Level FlightAware ADS-B
Thu 03:10:38 AM 37.3630 143.1280 211° Southwest 432 497 34,000  Level FlightAware ADS-B
Thu 03:11:23 AM 37.2970 143.0790 211° Southwest 431 496 34,000  Level FlightAware ADS-B
Thu 03:12:03 AM 37.2180 143.0260 208° Southwest 432 497 34,000  Level FlightAware ADS-B
Thu 03:12:48 AM 37.1360 142.9700 209° Southwest 434 499 34,000  Level FlightAware ADS-B
Thu 03:13:28 AM 37.0650 142.9220 208° Southwest 434 499 34,000  Level FlightAware ADS-B
Thu 03:14:16 AM 36.9910 142.8720 208° Southwest 434 499 34,000  Level FlightAware ADS-B
Thu 03:15:04 AM 36.9190 142.8220 209° Southwest 434 499 34,000  Level FlightAware ADS-B
Thu 03:16:28 AM 36.7520 142.7110 208° Southwest 34,000  Level FlightAware ADS-B
Thu 03:17:08 AM 36.6770 142.6610 208° Southwest 34,000  Level FlightAware ADS-B
Thu 03:17:53 AM 36.5970 142.6090 208° Southwest 431 496 34,000  Level FlightAware ADS-B
Thu 03:18:35 AM 36.5380 142.5690 209° Southwest 431 496 34,000  Level FlightAware ADS-B
Thu 03:19:11 AM 36.4680 142.5220 208° Southwest 429 494 34,000  Level FlightAware ADS-B
Thu 03:19:59 AM 36.3780 142.4630 208° Southwest 429 494 34,000  Level FlightAware ADS-B
Thu 03:20:35 AM 36.3200 142.4250 208° Southwest 429 494 34,000  Level FlightAware ADS-B
Thu 03:21:39 AM 36.2100 142.3310 215° Southwest 418 481 34,000 -61 Level FlightAware ADS-B
Thu 03:22:13 AM 36.1650 142.2880 218° Southwest 423 487 33,900 -2,182 Descending FlightAware ADS-B
Thu 03:23:51 AM 36.0090 142.1510 254° West 409 471 29,200 -2,667 Descending FlightAware ADS-B
Thu 03:24:00 AM 36.0174 142.0986 254° West  Level FlightAware Approximate
Thu 03:24:37 AM 35.9370 142.0870 216° Southwest 427 491 27,500  Level FlightAware ADS-B
Thu 03:25:28 AM 35.8710 141.9880 231° Southwest 424 488 25,800 -1,582 Descending FlightAware ADS-B
Thu 03:26:27 AM 35.8580 141.8360 264° West 445 512 24,600 -914 Descending FlightAware ADS-B
Thu 03:27:13 AM 35.8580 141.7220 270° West 443 510 24,200 -1,426 Descending FlightAware ADS-B
Thu 03:28:08 AM 35.8570 141.5870 270° West 434 499 22,200 -2,739 Descending FlightAware ADS-B
Thu 03:28:45 AM 35.8560 141.4960 269° West 430 495 20,000 -3,417 Descending FlightAware ADS-B
Thu 03:29:20 AM 35.8550 141.4150 269° West 428 493 18,100 -3,500 Descending FlightAware ADS-B
Thu 03:30:09 AM 35.8540 141.2880 269° West 416 479 15,100 -3,506 Descending FlightAware ADS-B
Thu 03:30:49 AM 35.8530 141.1970 269° West 409 471 12,900 -3,185 Descending FlightAware ADS-B
Thu 03:31:30 AM 35.8520 141.1040 269° West 402 463 10,800 -1,862 Descending FlightAware ADS-B
Thu 03:32:16 AM 35.8670 141.0020 280° West 366 421 10,200 -488 Descending FlightAware ADS-B
Thu 03:32:56 AM 35.8810 140.9320 284° West 324 373 10,100 -348 Descending FlightAware ADS-B
Thu 03:33:25 AM 35.8920 140.8750 283° West 298 343 9,800 -667 Descending FlightAware ADS-B
Thu 03:33:50 AM 35.8990 140.8400 284° West 286 329 9,500 -1,091 Descending FlightAware ADS-B
Thu 03:34:20 AM 35.9100 140.7900 285° West 282 325 8,800 -1,500 Descending FlightAware ADS-B
Thu 03:34:50 AM 35.9200 140.7410 284° West 282 325 8,000 -1,440 Descending FlightAware ADS-B
Thu 03:35:10 AM 35.9260 140.7120 284° West 282 325 7,600 -1,347 Descending FlightAware ADS-B
Thu 03:35:39 AM 35.9350 140.6670 284° West 280 322 6,900 -1,385 Descending FlightAware ADS-B
Thu 03:36:15 AM 35.9470 140.6110 285° West 277 319 6,100 -1,000 Descending FlightAware ADS-B
Thu 03:36:39 AM 35.9550 140.5750 285° West 263 303 5,900 -122 Descending FlightAware ADS-B
Thu 03:37:04 AM 35.9620 140.5410 284° West 240 276 6,000 -107 Climbing FlightAware ADS-B
Thu 03:37:35 AM 35.9710 140.5000 285° West 234 269 5,800 -800 Descending FlightAware ADS-B
Thu 03:38:04 AM 35.9790 140.4620 285° West 233 268 5,200 -1,200 Descending FlightAware ADS-B
Thu 03:38:30 AM 35.9850 140.4290 283° West 229 264 4,700 -1,171 Descending FlightAware ADS-B
Thu 03:38:45 AM 35.9890 140.4090 284° West 226 260 4,400 -960 Descending FlightAware ADS-B
Thu 03:39:27 AM 35.9880 140.3600 269° West 3,700 -918 Descending FlightAware ADS-B
Thu 03:40:10 AM 35.9740 140.3090 251° West 199 229 3,100 -842 Descending FlightAware ADS-B
Thu 03:40:24 AM 35.9670 140.2930 242° Southwest 191 220 2,900 -158 Descending FlightAware ADS-B
Thu 03:40:48 AM 35.9620 140.2780 248° West 193 222 3,000 -133 Climbing FlightAware ADS-B
Thu 03:41:09 AM 35.9460 140.2550 229° Southwest 187 215 2,800 -400 Descending FlightAware ADS-B
Thu 03:41:18 AM 35.9370 140.2530 190° South 191 220 2,800  Level FlightAware ADS-B
Thu 03:41:42 AM 35.9180 140.2650 153° Southeast 198 228 2,800 -200 Level FlightAware ADS-B
Thu 03:42:18 AM 35.8890 140.2850 151° Southeast 192 221 2,600 -581 Descending FlightAware ADS-B
Thu 03:42:44 AM 35.8700 140.2990 149° Southeast 189 217 2,200 -545 Descending FlightAware ADS-B
Thu 03:43:13 AM 35.8450 140.3160 151° Southeast 171 197 2,100 -930 Descending FlightAware ADS-B
Thu 03:43:55 AM 35.8210 140.3350 147° Southeast 144 166 1,100 -1,084 Descending FlightAware ADS-B
Thu 03:44:36 AM 35.7960 140.3530 150° Southeast 144 166 600 -720 Descending FlightAware ADS-B
Thu 03:44:45 AM 35.7920 140.3560 149° Southeast 146 168 500 -167 Descending FlightAware ADS-B
Thu 03:45:12 AM 35.7780 140.3650 152° Southeast 146 168 500  Level FlightAware ADS-B
Thu 03:47:00 AM 35.7647 140.3864 253° West  Level Estimated
Thu 03:48:00 AM 35.7647 140.3864 253° West  Level Estimated
Thu 03:49:00 AM 35.7647 140.3864 253° West  Level Estimated

Login

Don't have an account? Register now (free) for customized features, flight alerts, and more!